sensor_id;sensor_type;location;lat;lon;timestamp;pressure;altitude;pressure_sealevel;temperature;humidity
62164;BME280;48149;51.132;7.178;2022-11-20T00:00:04;98272.78;;;5.07;100.00
62164;BME280;48149;51.132;7.178;2022-11-20T00:02:30;98274.19;;;5.30;100.00
62164;BME280;48149;51.132;7.178;2022-11-20T00:04:55;98279.66;;;4.93;100.00
62164;BME280;48149;51.132;7.178;2022-11-20T00:07:20;98269.09;;;5.16;100.00
62164;BME280;48149;51.132;7.178;2022-11-20T00:09:51;98264.75;;;5.02;100.00
62164;BME280;48149;51.132;7.178;2022-11-20T00:12:17;98267.41;;;5.08;100.00
62164;BME280;48149;51.132;7.178;2022-11-20T00:14:43;98267.41;;;4.87;100.00
62164;BME280;48149;51.132;7.178;2022-11-20T00:17:08;98273.03;;;5.12;100.00
62164;BME280;48149;51.132;7.178;2022-11-20T00:19:33;98261.47;;;5.42;100.00
62164;BME280;48149;51.132;7.178;2022-11-20T00:21:58;98260.25;;;4.89;100.00
62164;BME280;48149;51.132;7.178;2022-11-20T00:24:23;98262.66;;;5.39;100.00
62164;BME280;48149;51.132;7.178;2022-11-20T00:26:49;98262.41;;;5.07;100.00
62164;BME280;48149;51.132;7.178;2022-11-20T00:29:14;98266.50;;;4.95;100.00
62164;BME280;48149;51.132;7.178;2022-11-20T00:31:40;98264.59;;;4.82;100.00
62164;BME280;48149;51.132;7.178;2022-11-20T00:34:06;98258.41;;;4.62;100.00
62164;BME280;48149;51.132;7.178;2022-11-20T00:36:33;98259.50;;;4.74;100.00
62164;BME280;48149;51.132;7.178;2022-11-20T00:38:59;98257.34;;;4.99;100.00
62164;BME280;48149;51.132;7.178;2022-11-20T00:41:27;98265.13;;;5.20;100.00
62164;BME280;48149;51.132;7.178;2022-11-20T00:43:53;98263.03;;;4.88;100.00
62164;BME280;48149;51.132;7.178;2022-11-20T00:46:19;98261.97;;;4.61;100.00
62164;BME280;48149;51.132;7.178;2022-11-20T00:48:45;98265.19;;;4.63;100.00
62164;BME280;48149;51.132;7.178;2022-11-20T00:51:11;98260.16;;;4.40;100.00
62164;BME280;48149;51.132;7.178;2022-11-20T00:53:37;98250.81;;;5.03;100.00
62164;BME280;48149;51.132;7.178;2022-11-20T00:56:04;98251.66;;;4.89;100.00
62164;BME280;48149;51.132;7.178;2022-11-20T00:58:31;98250.44;;;5.06;100.00
62164;BME280;48149;51.132;7.178;2022-11-20T01:01:00;98255.63;;;5.33;100.00
62164;BME280;48149;51.132;7.178;2022-11-20T01:03:27;98258.13;;;5.20;100.00
62164;BME280;48149;51.132;7.178;2022-11-20T01:05:52;98250.59;;;5.25;100.00
62164;BME280;48149;51.132;7.178;2022-11-20T01:08:17;98257.38;;;5.26;100.00
62164;BME280;48149;51.132;7.178;2022-11-20T01:10:42;98254.50;;;5.43;100.00
62164;BME280;48149;51.132;7.178;2022-11-20T01:13:10;98252.59;;;5.51;100.00
62164;BME280;48149;51.132;7.178;2022-11-20T01:15:54;98248.56;;;5.49;100.00
62164;BME280;48149;51.132;7.178;2022-11-20T01:18:25;98249.88;;;5.66;100.00
62164;BME280;48149;51.132;7.178;2022-11-20T01:20:50;98246.38;;;5.52;100.00
62164;BME280;48149;51.132;7.178;2022-11-20T01:23:16;98247.28;;;5.66;100.00
62164;BME280;48149;51.132;7.178;2022-11-20T01:25:42;98246.03;;;5.62;100.00
62164;BME280;48149;51.132;7.178;2022-11-20T01:28:07;98244.16;;;5.21;100.00
62164;BME280;48149;51.132;7.178;2022-11-20T01:30:33;98239.00;;;5.00;100.00
62164;BME280;48149;51.132;7.178;2022-11-20T01:32:58;98239.41;;;5.25;100.00
62164;BME280;48149;51.132;7.178;2022-11-20T01:35:23;98242.59;;;4.57;100.00
62164;BME280;48149;51.132;7.178;2022-11-20T01:37:49;98233.72;;;4.66;100.00
62164;BME280;48149;51.132;7.178;2022-11-20T01:40:15;98226.53;;;5.10;100.00
62164;BME280;48149;51.132;7.178;2022-11-20T01:42:44;98229.59;;;5.20;100.00
62164;BME280;48149;51.132;7.178;2022-11-20T01:48:12;98228.09;;;5.32;100.00
62164;BME280;48149;51.132;7.178;2022-11-20T01:50:37;98229.84;;;5.25;100.00
62164;BME280;48149;51.132;7.178;2022-11-20T01:53:07;98229.19;;;5.23;100.00
62164;BME280;48149;51.132;7.178;2022-11-20T01:55:34;98235.28;;;5.09;100.00
62164;BME280;48149;51.132;7.178;2022-11-20T01:58:01;98232.81;;;5.22;100.00
62164;BME280;48149;51.132;7.178;2022-11-20T02:00:27;98230.09;;;5.65;100.00
62164;BME280;48149;51.132;7.178;2022-11-20T02:03:26;98234.06;;;5.61;100.00
62164;BME280;48149;51.132;7.178;2022-11-20T02:08:10;98226.97;;;5.42;100.00
62164;BME280;48149;51.132;7.178;2022-11-20T02:10:36;98229.56;;;5.42;100.00
62164;BME280;48149;51.132;7.178;2022-11-20T02:13:02;98224.16;;;5.43;100.00
62164;BME280;48149;51.132;7.178;2022-11-20T02:16:03;98231.69;;;5.31;100.00
62164;BME280;48149;51.132;7.178;2022-11-20T02:18:28;98226.94;;;5.14;100.00
62164;BME280;48149;51.132;7.178;2022-11-20T02:20:58;98226.75;;;5.43;100.00
62164;BME280;48149;51.132;7.178;2022-11-20T02:26:10;98232.38;;;5.47;100.00
62164;BME280;48149;51.132;7.178;2022-11-20T02:28:37;98220.31;;;5.32;100.00
62164;BME280;48149;51.132;7.178;2022-11-20T02:31:03;98223.22;;;5.51;100.00
62164;BME280;48149;51.132;7.178;2022-11-20T02:33:28;98217.50;;;5.34;100.00
62164;BME280;48149;51.132;7.178;2022-11-20T02:35:53;98225.84;;;5.23;100.00
62164;BME280;48149;51.132;7.178;2022-11-20T02:38:19;98226.81;;;5.50;100.00
62164;BME280;48149;51.132;7.178;2022-11-20T02:40:45;98221.28;;;5.59;100.00
62164;BME280;48149;51.132;7.178;2022-11-20T02:43:11;98223.63;;;5.20;100.00
62164;BME280;48149;51.132;7.178;2022-11-20T02:45:36;98224.16;;;5.15;100.00
62164;BME280;48149;51.132;7.178;2022-11-20T02:48:02;98219.25;;;5.27;100.00
62164;BME280;48149;51.132;7.178;2022-11-20T02:50:27;98207.84;;;5.21;100.00
62164;BME280;48149;51.132;7.178;2022-11-20T02:52:53;98208.03;;;5.20;100.00
62164;BME280;48149;51.132;7.178;2022-11-20T02:55:18;98204.09;;;5.30;100.00
62164;BME280;48149;51.132;7.178;2022-11-20T02:57:43;98198.91;;;5.30;100.00
62164;BME280;48149;51.132;7.178;2022-11-20T03:00:09;98201.53;;;5.65;100.00
62164;BME280;48149;51.132;7.178;2022-11-20T03:02:34;98206.50;;;5.60;100.00
62164;BME280;48149;51.132;7.178;2022-11-20T03:05:00;98195.31;;;6.00;100.00
62164;BME280;48149;51.132;7.178;2022-11-20T03:07:27;98190.16;;;5.66;100.00
62164;BME280;48149;51.132;7.178;2022-11-20T03:09:52;98172.19;;;5.02;100.00
62164;BME280;48149;51.132;7.178;2022-11-20T03:12:17;98173.31;;;5.21;100.00
62164;BME280;48149;51.132;7.178;2022-11-20T03:14:43;98174.00;;;5.08;100.00
62164;BME280;48149;51.132;7.178;2022-11-20T03:17:08;98169.78;;;5.01;100.00
62164;BME280;48149;51.132;7.178;2022-11-20T03:19:33;98170.88;;;4.85;100.00
62164;BME280;48149;51.132;7.178;2022-11-20T03:21:59;98167.19;;;4.79;100.00
62164;BME280;48149;51.132;7.178;2022-11-20T03:24:25;98173.84;;;4.40;100.00
62164;BME280;48149;51.132;7.178;2022-11-20T03:26:50;98171.53;;;4.51;100.00
62164;BME280;48149;51.132;7.178;2022-11-20T03:29:15;98173.81;;;4.61;100.00
62164;BME280;48149;51.132;7.178;2022-11-20T03:31:41;98171.50;;;4.66;100.00
62164;BME280;48149;51.132;7.178;2022-11-20T03:34:08;98163.78;;;4.72;100.00
62164;BME280;48149;51.132;7.178;2022-11-20T03:36:33;98166.06;;;4.89;100.00
62164;BME280;48149;51.132;7.178;2022-11-20T03:39:00;98173.31;;;5.21;100.00
62164;BME280;48149;51.132;7.178;2022-11-20T03:41:27;98180.66;;;5.17;100.00
62164;BME280;48149;51.132;7.178;2022-11-20T03:43:53;98180.91;;;4.95;100.00
62164;BME280;48149;51.132;7.178;2022-11-20T03:46:19;98173.41;;;5.06;100.00
62164;BME280;48149;51.132;7.178;2022-11-20T03:48:46;98174.91;;;5.22;100.00
62164;BME280;48149;51.132;7.178;2022-11-20T03:51:13;98174.72;;;5.23;100.00
62164;BME280;48149;51.132;7.178;2022-11-20T03:53:39;98171.22;;;5.37;100.00
62164;BME280;48149;51.132;7.178;2022-11-20T03:56:04;98170.16;;;5.25;100.00
62164;BME280;48149;51.132;7.178;2022-11-20T03:58:30;98163.53;;;4.95;100.00
62164;BME280;48149;51.132;7.178;2022-11-20T04:00:55;98178.47;;;5.49;100.00
62164;BME280;48149;51.132;7.178;2022-11-20T04:03:20;98178.03;;;5.38;100.00
62164;BME280;48149;51.132;7.178;2022-11-20T04:05:46;98170.28;;;5.17;100.00
62164;BME280;48149;51.132;7.178;2022-11-20T04:08:11;98178.00;;;5.11;100.00
62164;BME280;48149;51.132;7.178;2022-11-20T04:10:37;98175.66;;;4.88;100.00
62164;BME280;48149;51.132;7.178;2022-11-20T04:13:03;98173.50;;;5.19;100.00
62164;BME280;48149;51.132;7.178;2022-11-20T04:15:28;98173.63;;;4.83;100.00
62164;BME280;48149;51.132;7.178;2022-11-20T04:17:54;98175.25;;;4.84;100.00
62164;BME280;48149;51.132;7.178;2022-11-20T04:20:21;98169.72;;;5.22;100.00
62164;BME280;48149;51.132;7.178;2022-11-20T04:22:47;98174.41;;;5.39;100.00
62164;BME280;48149;51.132;7.178;2022-11-20T04:25:12;98168.06;;;5.49;100.00
62164;BME280;48149;51.132;7.178;2022-11-20T04:27:37;98171.59;;;5.34;100.00
62164;BME280;48149;51.132;7.178;2022-11-20T04:30:05;98172.44;;;5.42;100.00
62164;BME280;48149;51.132;7.178;2022-11-20T04:32:30;98168.75;;;5.23;100.00
62164;BME280;48149;51.132;7.178;2022-11-20T04:34:55;98175.38;;;5.66;100.00
62164;BME280;48149;51.132;7.178;2022-11-20T04:37:21;98166.72;;;5.18;100.00
62164;BME280;48149;51.132;7.178;2022-11-20T04:39:46;98167.63;;;5.38;100.00
62164;BME280;48149;51.132;7.178;2022-11-20T04:42:11;98171.34;;;5.29;100.00
62164;BME280;48149;51.132;7.178;2022-11-20T04:44:55;98176.44;;;4.89;100.00
62164;BME280;48149;51.132;7.178;2022-11-20T04:47:20;98178.28;;;5.50;100.00
62164;BME280;48149;51.132;7.178;2022-11-20T04:49:46;98171.97;;;5.66;100.00
62164;BME280;48149;51.132;7.178;2022-11-20T04:52:11;98175.44;;;5.79;100.00
62164;BME280;48149;51.132;7.178;2022-11-20T04:54:36;98173.31;;;5.55;100.00
62164;BME280;48149;51.132;7.178;2022-11-20T04:57:02;98176.31;;;5.59;100.00
62164;BME280;48149;51.132;7.178;2022-11-20T04:59:27;98168.31;;;5.54;100.00
62164;BME280;48149;51.132;7.178;2022-11-20T05:01:52;98172.16;;;5.58;100.00
62164;BME280;48149;51.132;7.178;2022-11-20T05:04:18;98181.84;;;5.49;100.00
62164;BME280;48149;51.132;7.178;2022-11-20T05:06:43;98174.41;;;5.39;100.00
62164;BME280;48149;51.132;7.178;2022-11-20T05:09:10;98174.03;;;5.43;100.00
62164;BME280;48149;51.132;7.178;2022-11-20T05:11:35;98183.06;;;5.47;100.00
62164;BME280;48149;51.132;7.178;2022-11-20T05:14:01;98175.59;;;5.37;100.00
62164;BME280;48149;51.132;7.178;2022-11-20T05:16:26;98182.38;;;5.31;100.00
62164;BME280;48149;51.132;7.178;2022-11-20T05:18:53;98183.91;;;5.54;100.00
62164;BME280;48149;51.132;7.178;2022-11-20T05:21:19;98176.03;;;5.41;100.00
62164;BME280;48149;51.132;7.178;2022-11-20T05:23:45;98178.78;;;5.32;100.00
62164;BME280;48149;51.132;7.178;2022-11-20T05:26:12;98173.78;;;5.31;100.00
62164;BME280;48149;51.132;7.178;2022-11-20T05:28:38;98177.72;;;5.27;100.00
62164;BME280;48149;51.132;7.178;2022-11-20T05:31:08;98170.28;;;5.17;100.00
62164;BME280;48149;51.132;7.178;2022-11-20T05:33:34;98180.28;;;5.20;100.00
62164;BME280;48149;51.132;7.178;2022-11-20T05:36:00;98177.50;;;5.22;100.00
62164;BME280;48149;51.132;7.178;2022-11-20T05:38:25;98169.34;;;4.97;100.00
62164;BME280;48149;51.132;7.178;2022-11-20T05:40:50;98173.16;;;5.01;100.00
62164;BME280;48149;51.132;7.178;2022-11-20T05:43:16;98170.00;;;5.33;100.00
62164;BME280;48149;51.132;7.178;2022-11-20T05:45:41;98178.84;;;5.46;100.00
62164;BME280;48149;51.132;7.178;2022-11-20T05:48:13;98179.81;;;5.38;100.00
62164;BME280;48149;51.132;7.178;2022-11-20T05:50:38;98176.59;;;5.70;100.00
62164;BME280;48149;51.132;7.178;2022-11-20T05:53:04;98179.53;;;5.26;100.00
62164;BME280;48149;51.132;7.178;2022-11-20T05:55:30;98175.72;;;5.57;100.00
62164;BME280;48149;51.132;7.178;2022-11-20T05:57:55;98182.81;;;5.76;100.00
62164;BME280;48149;51.132;7.178;2022-11-20T06:00:20;98175.88;;;5.83;100.00
62164;BME280;48149;51.132;7.178;2022-11-20T06:02:46;98178.31;;;5.57;100.00
62164;BME280;48149;51.132;7.178;2022-11-20T06:05:11;98177.06;;;5.46;100.00
62164;BME280;48149;51.132;7.178;2022-11-20T06:07:36;98184.47;;;5.49;100.00
62164;BME280;48149;51.132;7.178;2022-11-20T06:10:02;98179.47;;;5.13;100.00
62164;BME280;48149;51.132;7.178;2022-11-20T06:12:27;98179.50;;;5.20;100.00
62164;BME280;48149;51.132;7.178;2022-11-20T06:14:52;98175.69;;;5.50;100.00
62164;BME280;48149;51.132;7.178;2022-11-20T06:17:18;98169.94;;;5.61;100.00
62164;BME280;48149;51.132;7.178;2022-11-20T06:19:43;98169.25;;;5.46;100.00
62164;BME280;48149;51.132;7.178;2022-11-20T06:22:08;98175.09;;;5.55;100.00
62164;BME280;48149;51.132;7.178;2022-11-20T06:24:33;98178.72;;;4.98;100.00
62164;BME280;48149;51.132;7.178;2022-11-20T06:27:00;98179.25;;;5.15;100.00
62164;BME280;48149;51.132;7.178;2022-11-20T06:29:25;98176.91;;;5.20;100.00
62164;BME280;48149;51.132;7.178;2022-11-20T06:31:52;98171.56;;;5.28;100.00
62164;BME280;48149;51.132;7.178;2022-11-20T06:34:17;98174.38;;;5.33;100.00
62164;BME280;48149;51.132;7.178;2022-11-20T06:36:42;98169.84;;;5.07;100.00
62164;BME280;48149;51.132;7.178;2022-11-20T06:39:08;98170.38;;;5.30;100.00
62164;BME280;48149;51.132;7.178;2022-11-20T06:41:35;98177.31;;;5.51;100.00
62164;BME280;48149;51.132;7.178;2022-11-20T06:44:03;98172.75;;;5.25;100.00
62164;BME280;48149;51.132;7.178;2022-11-20T06:46:29;98175.91;;;5.55;100.00
62164;BME280;48149;51.132;7.178;2022-11-20T06:48:55;98189.91;;;5.26;100.00
62164;BME280;48149;51.132;7.178;2022-11-20T06:51:20;98182.13;;;4.99;100.00
62164;BME280;48149;51.132;7.178;2022-11-20T06:53:46;98186.81;;;4.89;100.00
62164;BME280;48149;51.132;7.178;2022-11-20T06:56:12;98181.13;;;5.27;100.00
62164;BME280;48149;51.132;7.178;2022-11-20T06:58:38;98187.25;;;5.13;100.00
62164;BME280;48149;51.132;7.178;2022-11-20T07:01:07;98183.44;;;4.88;100.00
62164;BME280;48149;51.132;7.178;2022-11-20T07:03:33;98186.75;;;4.75;100.00
62164;BME280;48149;51.132;7.178;2022-11-20T07:05:59;98179.47;;;4.92;100.00
62164;BME280;48149;51.132;7.178;2022-11-20T07:08:25;98184.19;;;4.61;100.00
62164;BME280;48149;51.132;7.178;2022-11-20T07:10:50;98187.44;;;4.63;100.00
62164;BME280;48149;51.132;7.178;2022-11-20T07:13:16;98196.13;;;4.55;100.00
62164;BME280;48149;51.132;7.178;2022-11-20T07:15:41;98194.03;;;4.44;100.00
62164;BME280;48149;51.132;7.178;2022-11-20T07:18:06;98195.41;;;4.25;100.00
62164;BME280;48149;51.132;7.178;2022-11-20T07:20:32;98203.88;;;3.98;100.00
62164;BME280;48149;51.132;7.178;2022-11-20T07:22:57;98212.88;;;4.02;100.00
62164;BME280;48149;51.132;7.178;2022-11-20T07:25:27;98210.19;;;4.10;100.00
62164;BME280;48149;51.132;7.178;2022-11-20T07:27:56;98213.84;;;4.01;100.00
62164;BME280;48149;51.132;7.178;2022-11-20T07:30:21;98207.22;;;4.13;100.00
62164;BME280;48149;51.132;7.178;2022-11-20T07:32:50;98213.66;;;4.17;100.00
62164;BME280;48149;51.132;7.178;2022-11-20T07:35:16;98214.81;;;4.15;100.00
62164;BME280;48149;51.132;7.178;2022-11-20T07:37:41;98213.97;;;4.29;100.00
62164;BME280;48149;51.132;7.178;2022-11-20T07:40:06;98211.16;;;4.45;100.00
62164;BME280;48149;51.132;7.178;2022-11-20T07:42:32;98206.34;;;4.42;100.00
62164;BME280;48149;51.132;7.178;2022-11-20T07:45:01;98200.50;;;4.55;100.00
62164;BME280;48149;51.132;7.178;2022-11-20T07:47:26;98198.69;;;4.55;100.00
62164;BME280;48149;51.132;7.178;2022-11-20T07:49:51;98194.63;;;4.67;100.00
62164;BME280;48149;51.132;7.178;2022-11-20T07:52:17;98191.41;;;4.87;100.00
62164;BME280;48149;51.132;7.178;2022-11-20T07:54:44;98193.94;;;4.80;100.00
62164;BME280;48149;51.132;7.178;2022-11-20T07:57:09;98194.19;;;4.64;100.00
62164;BME280;48149;51.132;7.178;2022-11-20T07:59:35;98191.91;;;4.54;100.00
62164;BME280;48149;51.132;7.178;2022-11-20T08:02:02;98199.88;;;4.32;100.00
62164;BME280;48149;51.132;7.178;2022-11-20T08:04:28;98195.31;;;4.55;100.00
62164;BME280;48149;51.132;7.178;2022-11-20T08:06:54;98199.38;;;4.64;100.00
62164;BME280;48149;51.132;7.178;2022-11-20T08:09:19;98197.50;;;5.00;100.00
62164;BME280;48149;51.132;7.178;2022-11-20T08:14:31;98197.19;;;5.37;100.00
62164;BME280;48149;51.132;7.178;2022-11-20T08:16:58;98190.72;;;6.95;100.00
62164;BME280;48149;51.132;7.178;2022-11-20T08:19:25;98189.44;;;7.57;100.00
62164;BME280;48149;51.132;7.178;2022-11-20T08:21:50;98182.28;;;8.79;100.00
62164;BME280;48149;51.132;7.178;2022-11-20T08:24:16;98190.00;;;9.78;92.28
62164;BME280;48149;51.132;7.178;2022-11-20T08:26:41;98189.09;;;10.92;84.53
62164;BME280;48149;51.132;7.178;2022-11-20T08:29:07;98185.38;;;11.22;77.23
62164;BME280;48149;51.132;7.178;2022-11-20T08:31:33;98193.78;;;10.48;82.76
62164;BME280;48149;51.132;7.178;2022-11-20T08:33:59;98187.66;;;11.07;78.72
62164;BME280;48149;51.132;7.178;2022-11-20T08:36:24;98189.94;;;11.62;73.24
62164;BME280;48149;51.132;7.178;2022-11-20T08:38:50;98196.78;;;11.28;74.00
62164;BME280;48149;51.132;7.178;2022-11-20T08:41:16;98204.63;;;11.05;74.30
62164;BME280;48149;51.132;7.178;2022-11-20T08:43:57;98204.88;;;9.59;88.17
62164;BME280;48149;51.132;7.178;2022-11-20T08:46:23;98207.81;;;8.39;95.97
62164;BME280;48149;51.132;7.178;2022-11-20T08:48:50;98209.53;;;7.43;100.00
62164;BME280;48149;51.132;7.178;2022-11-20T08:51:15;98216.91;;;6.61;100.00
62164;BME280;48149;51.132;7.178;2022-11-20T08:53:40;98212.97;;;6.18;100.00
62164;BME280;48149;51.132;7.178;2022-11-20T08:56:07;98208.00;;;6.23;100.00
62164;BME280;48149;51.132;7.178;2022-11-20T08:58:32;98199.91;;;6.85;100.00
62164;BME280;48149;51.132;7.178;2022-11-20T09:00:58;98200.53;;;7.07;100.00
62164;BME280;48149;51.132;7.178;2022-11-20T09:03:24;98205.13;;;7.24;100.00
62164;BME280;48149;51.132;7.178;2022-11-20T09:05:56;98211.72;;;6.68;100.00
62164;BME280;48149;51.132;7.178;2022-11-20T09:08:21;98211.25;;;6.44;100.00
62164;BME280;48149;51.132;7.178;2022-11-20T09:10:50;98207.50;;;6.67;100.00
62164;BME280;48149;51.132;7.178;2022-11-20T09:13:15;98199.47;;;6.42;100.00
62164;BME280;48149;51.132;7.178;2022-11-20T09:15:41;98202.44;;;5.85;100.00
62164;BME280;48149;51.132;7.178;2022-11-20T09:18:07;98205.38;;;5.75;100.00
62164;BME280;48149;51.132;7.178;2022-11-20T09:20:32;98209.94;;;6.01;100.00
62164;BME280;48149;51.132;7.178;2022-11-20T09:22:57;98204.81;;;6.27;100.00
62164;BME280;48149;51.132;7.178;2022-11-20T09:25:23;98201.19;;;6.22;100.00
62164;BME280;48149;51.132;7.178;2022-11-20T09:27:54;98197.41;;;6.24;100.00
62164;BME280;48149;51.132;7.178;2022-11-20T09:30:19;98191.09;;;6.73;100.00
62164;BME280;48149;51.132;7.178;2022-11-20T09:32:44;98181.50;;;6.73;100.00
62164;BME280;48149;51.132;7.178;2022-11-20T09:35:10;98184.50;;;6.96;100.00
62164;BME280;48149;51.132;7.178;2022-11-20T09:37:35;98180.13;;;6.71;100.00
62164;BME280;48149;51.132;7.178;2022-11-20T09:40:01;98178.91;;;6.73;100.00
62164;BME280;48149;51.132;7.178;2022-11-20T09:42:37;98174.91;;;7.10;100.00
62164;BME280;48149;51.132;7.178;2022-11-20T09:45:22;98172.06;;;7.31;100.00
62164;BME280;48149;51.132;7.178;2022-11-20T09:48:03;98182.31;;;7.00;100.00
62164;BME280;48149;51.132;7.178;2022-11-20T09:55:30;98172.47;;;6.56;100.00
62164;BME280;48149;51.132;7.178;2022-11-20T09:57:56;98175.72;;;6.65;100.00
62164;BME280;48149;51.132;7.178;2022-11-20T10:00:23;98172.72;;;6.74;100.00
62164;BME280;48149;51.132;7.178;2022-11-20T10:05:47;98169.84;;;7.35;100.00
62164;BME280;48149;51.132;7.178;2022-11-20T10:08:21;98164.22;;;7.44;100.00
62164;BME280;48149;51.132;7.178;2022-11-20T10:29:25;98151.56;;;7.68;98.02
62164;BME280;48149;51.132;7.178;2022-11-20T10:32:00;98142.47;;;8.59;98.24
62164;BME280;48149;51.132;7.178;2022-11-20T10:34:29;98138.31;;;9.44;91.16
62164;BME280;48149;51.132;7.178;2022-11-20T10:37:00;98133.72;;;8.47;97.79
62164;BME280;48149;51.132;7.178;2022-11-20T10:41:54;98133.50;;;8.48;96.16
62164;BME280;48149;51.132;7.178;2022-11-20T10:44:21;98141.66;;;7.83;100.00
62164;BME280;48149;51.132;7.178;2022-11-20T10:47:15;98139.88;;;7.77;100.00
62164;BME280;48149;51.132;7.178;2022-11-20T10:49:43;98134.03;;;7.30;100.00
62164;BME280;48149;51.132;7.178;2022-11-20T11:00:06;98118.78;;;7.85;100.00
62164;BME280;48149;51.132;7.178;2022-11-20T11:02:34;98109.13;;;7.47;100.00
62164;BME280;48149;51.132;7.178;2022-11-20T11:05:04;98113.91;;;7.57;100.00
62164;BME280;48149;51.132;7.178;2022-11-20T11:07:35;98110.81;;;7.09;100.00
62164;BME280;48149;51.132;7.178;2022-11-20T11:10:18;98116.19;;;7.34;100.00
62164;BME280;48149;51.132;7.178;2022-11-20T11:12:45;98107.69;;;6.74;100.00
62164;BME280;48149;51.132;7.178;2022-11-20T11:15:12;98100.22;;;7.17;100.00
62164;BME280;48149;51.132;7.178;2022-11-20T11:17:38;98105.03;;;6.94;100.00
62164;BME280;48149;51.132;7.178;2022-11-20T11:25:24;98081.63;;;6.81;100.00
62164;BME280;48149;51.132;7.178;2022-11-20T11:27:51;98080.06;;;6.60;100.00
62164;BME280;48149;51.132;7.178;2022-11-20T11:30:18;98061.19;;;7.04;100.00
62164;BME280;48149;51.132;7.178;2022-11-20T11:32:44;98067.66;;;6.75;100.00
62164;BME280;48149;51.132;7.178;2022-11-20T11:35:21;98055.00;;;6.98;100.00
62164;BME280;48149;51.132;7.178;2022-11-20T11:37:46;98058.69;;;7.42;100.00
62164;BME280;48149;51.132;7.178;2022-11-20T11:40:15;98054.38;;;7.03;100.00
62164;BME280;48149;51.132;7.178;2022-11-20T11:42:41;98052.03;;;6.88;100.00
62164;BME280;48149;51.132;7.178;2022-11-20T11:45:11;98049.44;;;7.46;100.00
62164;BME280;48149;51.132;7.178;2022-11-20T11:50:18;98049.25;;;6.77;100.00
62164;BME280;48149;51.132;7.178;2022-11-20T12:00:37;98031.22;;;6.69;100.00
62164;BME280;48149;51.132;7.178;2022-11-20T12:05:39;98023.50;;;7.20;100.00
62164;BME280;48149;51.132;7.178;2022-11-20T12:08:06;98013.81;;;7.46;100.00
62164;BME280;48149;51.132;7.178;2022-11-20T12:16:02;98011.81;;;7.80;100.00
62164;BME280;48149;51.132;7.178;2022-11-20T12:18:28;98007.53;;;7.03;100.00
62164;BME280;48149;51.132;7.178;2022-11-20T12:25:58;98004.59;;;6.86;100.00
62164;BME280;48149;51.132;7.178;2022-11-20T12:28:28;98010.16;;;6.96;100.00
62164;BME280;48149;51.132;7.178;2022-11-20T12:36:24;97998.84;;;7.67;100.00
62164;BME280;48149;51.132;7.178;2022-11-20T12:47:28;97982.78;;;7.38;100.00
62164;BME280;48149;51.132;7.178;2022-11-20T12:52:38;97976.28;;;7.54;100.00
62164;BME280;48149;51.132;7.178;2022-11-20T12:57:50;97974.47;;;7.55;100.00
62164;BME280;48149;51.132;7.178;2022-11-20T13:00:19;97963.06;;;7.18;100.00
62164;BME280;48149;51.132;7.178;2022-11-20T13:08:01;97951.94;;;6.91;100.00
62164;BME280;48149;51.132;7.178;2022-11-20T13:10:34;97950.38;;;7.66;100.00
62164;BME280;48149;51.132;7.178;2022-11-20T13:18:02;97929.91;;;7.38;100.00
62164;BME280;48149;51.132;7.178;2022-11-20T13:20:29;97942.28;;;7.05;100.00
62164;BME280;48149;51.132;7.178;2022-11-20T13:22:55;97932.78;;;7.23;100.00
62164;BME280;48149;51.132;7.178;2022-11-20T13:25:29;97922.69;;;7.02;100.00
62164;BME280;48149;51.132;7.178;2022-11-20T13:27:55;97909.94;;;7.25;100.00
62164;BME280;48149;51.132;7.178;2022-11-20T13:30:27;97915.22;;;6.68;100.00
62164;BME280;48149;51.132;7.178;2022-11-20T13:32:56;97917.00;;;7.18;100.00
62164;BME280;48149;51.132;7.178;2022-11-20T13:35:31;97910.63;;;7.14;100.00
62164;BME280;48149;51.132;7.178;2022-11-20T13:40:26;97913.50;;;6.42;100.00
62164;BME280;48149;51.132;7.178;2022-11-20T13:45:40;97906.31;;;6.88;100.00
62164;BME280;48149;51.132;7.178;2022-11-20T13:48:29;97907.53;;;6.86;100.00
62164;BME280;48149;51.132;7.178;2022-11-20T13:53:31;97891.44;;;6.58;100.00
62164;BME280;48149;51.132;7.178;2022-11-20T13:56:09;97879.91;;;6.91;100.00
62164;BME280;48149;51.132;7.178;2022-11-20T13:59:05;97879.91;;;6.91;100.00
62164;BME280;48149;51.132;7.178;2022-11-20T14:01:29;97874.78;;;7.10;100.00
62164;BME280;48149;51.132;7.178;2022-11-20T14:03:57;97861.59;;;7.11;100.00
62164;BME280;48149;51.132;7.178;2022-11-20T14:06:25;97862.56;;;6.72;100.00
62164;BME280;48149;51.132;7.178;2022-11-20T14:08:52;97855.63;;;6.53;100.00
62164;BME280;48149;51.132;7.178;2022-11-20T14:11:19;97849.91;;;6.31;100.00
62164;BME280;48149;51.132;7.178;2022-11-20T14:14:18;97841.63;;;6.61;100.00
62164;BME280;48149;51.132;7.178;2022-11-20T14:16:36;97846.47;;;6.51;100.00
62164;BME280;48149;51.132;7.178;2022-11-20T14:22:17;97839.34;;;6.26;100.00
62164;BME280;48149;51.132;7.178;2022-11-20T14:24:46;97838.09;;;6.42;100.00
62164;BME280;48149;51.132;7.178;2022-11-20T14:27:13;97835.31;;;6.30;100.00
62164;BME280;48149;51.132;7.178;2022-11-20T14:29:39;97827.63;;;6.62;100.00
62164;BME280;48149;51.132;7.178;2022-11-20T14:32:08;97826.53;;;6.31;100.00
62164;BME280;48149;51.132;7.178;2022-11-20T14:34:35;97823.88;;;6.44;100.00
62164;BME280;48149;51.132;7.178;2022-11-20T14:37:03;97820.38;;;6.19;100.00
62164;BME280;48149;51.132;7.178;2022-11-20T14:39:30;97814.78;;;6.67;100.00
62164;BME280;48149;51.132;7.178;2022-11-20T14:41:57;97802.91;;;6.46;100.00
62164;BME280;48149;51.132;7.178;2022-11-20T14:44:25;97801.47;;;6.43;100.00
62164;BME280;48149;51.132;7.178;2022-11-20T14:46:52;97800.38;;;6.71;100.00
62164;BME280;48149;51.132;7.178;2022-11-20T14:49:17;97783.97;;;6.26;100.00
62164;BME280;48149;51.132;7.178;2022-11-20T14:51:42;97792.72;;;6.76;100.00
62164;BME280;48149;51.132;7.178;2022-11-20T14:54:11;97788.69;;;6.49;100.00
62164;BME280;48149;51.132;7.178;2022-11-20T14:56:37;97782.75;;;6.28;100.00